sensor_id;sensor_type;location;lat;lon;timestamp;P1;durP1;ratioP1;P2;durP2;ratioP2
52618;SDS011;38513;53.234;6.568;2023-07-31T00:00:43;8.98;;;5.63;;
52618;SDS011;38513;53.234;6.568;2023-07-31T00:03:11;10.15;;;5.57;;
52618;SDS011;38513;53.234;6.568;2023-07-31T00:05:37;11.27;;;5.80;;
52618;SDS011;38513;53.234;6.568;2023-07-31T00:08:06;9.65;;;5.90;;
52618;SDS011;38513;53.234;6.568;2023-07-31T00:10:32;11.77;;;6.07;;
52618;SDS011;38513;53.234;6.568;2023-07-31T00:12:59;9.37;;;6.00;;
52618;SDS011;38513;53.234;6.568;2023-07-31T00:15:25;10.95;;;6.30;;
52618;SDS011;38513;53.234;6.568;2023-07-31T00:17:51;9.68;;;6.07;;
52618;SDS011;38513;53.234;6.568;2023-07-31T00:20:17;12.73;;;6.63;;
52618;SDS011;38513;53.234;6.568;2023-07-31T00:22:43;9.60;;;6.22;;
52618;SDS011;38513;53.234;6.568;2023-07-31T00:25:09;10.65;;;6.07;;
52618;SDS011;38513;53.234;6.568;2023-07-31T00:27:35;9.02;;;6.05;;
52618;SDS011;38513;53.234;6.568;2023-07-31T00:30:02;11.35;;;6.20;;
52618;SDS011;38513;53.234;6.568;2023-07-31T00:32:28;9.85;;;5.50;;
52618;SDS011;38513;53.234;6.568;2023-07-31T00:34:57;9.90;;;5.65;;
52618;SDS011;38513;53.234;6.568;2023-07-31T00:37:23;10.02;;;5.20;;
52618;SDS011;38513;53.234;6.568;2023-07-31T00:39:49;9.20;;;5.00;;
52618;SDS011;38513;53.234;6.568;2023-07-31T00:42:18;9.35;;;4.90;;
52618;SDS011;38513;53.234;6.568;2023-07-31T00:44:44;9.15;;;5.60;;
52618;SDS011;38513;53.234;6.568;2023-07-31T00:47:10;8.23;;;4.80;;
52618;SDS011;38513;53.234;6.568;2023-07-31T00:49:37;7.88;;;5.22;;
52618;SDS011;38513;53.234;6.568;2023-07-31T00:52:06;9.95;;;5.20;;
52618;SDS011;38513;53.234;6.568;2023-07-31T00:54:32;9.65;;;5.50;;
52618;SDS011;38513;53.234;6.568;2023-07-31T00:56:59;9.18;;;5.63;;
52618;SDS011;38513;53.234;6.568;2023-07-31T00:59:25;10.23;;;5.60;;
52618;SDS011;38513;53.234;6.568;2023-07-31T01:01:51;9.80;;;6.00;;
52618;SDS011;38513;53.234;6.568;2023-07-31T01:04:17;8.32;;;5.88;;
52618;SDS011;38513;53.234;6.568;2023-07-31T01:06:45;8.90;;;6.05;;
52618;SDS011;38513;53.234;6.568;2023-07-31T01:11:42;8.15;;;5.63;;
52618;SDS011;38513;53.234;6.568;2023-07-31T01:14:11;9.23;;;6.10;;
52618;SDS011;38513;53.234;6.568;2023-07-31T01:16:38;10.30;;;5.97;;
52618;SDS011;38513;53.234;6.568;2023-07-31T01:19:05;8.45;;;5.85;;
52618;SDS011;38513;53.234;6.568;2023-07-31T01:24:46;9.03;;;4.97;;
52618;SDS011;38513;53.234;6.568;2023-07-31T01:26:56;7.82;;;4.72;;
52618;SDS011;38513;53.234;6.568;2023-07-31T01:29:34;7.75;;;4.00;;
52618;SDS011;38513;53.234;6.568;2023-07-31T01:32:03;7.60;;;4.03;;
52618;SDS011;38513;53.234;6.568;2023-07-31T01:34:30;7.78;;;4.25;;
52618;SDS011;38513;53.234;6.568;2023-07-31T01:36:58;8.80;;;4.70;;
52618;SDS011;38513;53.234;6.568;2023-07-31T01:39:32;8.35;;;5.28;;
52618;SDS011;38513;53.234;6.568;2023-07-31T01:42:04;8.60;;;5.45;;
52618;SDS011;38513;53.234;6.568;2023-07-31T01:44:39;10.65;;;5.50;;
52618;SDS011;38513;53.234;6.568;2023-07-31T01:47:10;9.00;;;5.90;;
52618;SDS011;38513;53.234;6.568;2023-07-31T01:49:36;9.52;;;6.05;;
52618;SDS011;38513;53.234;6.568;2023-07-31T01:52:08;9.00;;;5.47;;
52618;SDS011;38513;53.234;6.568;2023-07-31T01:54:37;8.98;;;5.60;;
52618;SDS011;38513;53.234;6.568;2023-07-31T01:57:03;9.02;;;5.35;;
52618;SDS011;38513;53.234;6.568;2023-07-31T01:59:29;9.02;;;5.63;;
52618;SDS011;38513;53.234;6.568;2023-07-31T02:01:56;8.63;;;5.55;;
52618;SDS011;38513;53.234;6.568;2023-07-31T02:04:24;8.20;;;4.88;;
52618;SDS011;38513;53.234;6.568;2023-07-31T02:06:59;8.63;;;5.18;;
52618;SDS011;38513;53.234;6.568;2023-07-31T02:09:28;8.40;;;5.03;;
52618;SDS011;38513;53.234;6.568;2023-07-31T02:11:54;7.50;;;4.72;;
52618;SDS011;38513;53.234;6.568;2023-07-31T02:14:20;8.05;;;4.57;;
52618;SDS011;38513;53.234;6.568;2023-07-31T02:16:49;8.02;;;4.25;;
52618;SDS011;38513;53.234;6.568;2023-07-31T02:19:15;8.30;;;4.70;;
52618;SDS011;38513;53.234;6.568;2023-07-31T02:21:42;6.57;;;3.80;;
52618;SDS011;38513;53.234;6.568;2023-07-31T02:24:08;7.53;;;4.10;;
52618;SDS011;38513;53.234;6.568;2023-07-31T02:26:34;7.22;;;4.38;;
52618;SDS011;38513;53.234;6.568;2023-07-31T02:29:00;7.18;;;4.10;;
52618;SDS011;38513;53.234;6.568;2023-07-31T02:31:26;6.85;;;3.90;;
52618;SDS011;38513;53.234;6.568;2023-07-31T02:33:53;6.67;;;3.70;;
52618;SDS011;38513;53.234;6.568;2023-07-31T02:36:22;7.68;;;3.88;;
52618;SDS011;38513;53.234;6.568;2023-07-31T02:38:48;7.10;;;3.50;;
52618;SDS011;38513;53.234;6.568;2023-07-31T02:41:14;8.25;;;3.70;;
52618;SDS011;38513;53.234;6.568;2023-07-31T02:43:41;6.72;;;3.40;;
52618;SDS011;38513;53.234;6.568;2023-07-31T02:46:07;6.40;;;3.40;;
52618;SDS011;38513;53.234;6.568;2023-07-31T02:48:36;7.30;;;3.67;;
52618;SDS011;38513;53.234;6.568;2023-07-31T02:51:02;6.78;;;3.58;;
52618;SDS011;38513;53.234;6.568;2023-07-31T02:53:31;7.05;;;3.70;;
52618;SDS011;38513;53.234;6.568;2023-07-31T02:55:57;8.05;;;3.38;;
52618;SDS011;38513;53.234;6.568;2023-07-31T02:58:23;7.90;;;3.90;;
52618;SDS011;38513;53.234;6.568;2023-07-31T03:00:49;6.45;;;3.38;;
52618;SDS011;38513;53.234;6.568;2023-07-31T03:03:15;7.43;;;2.90;;
52618;SDS011;38513;53.234;6.568;2023-07-31T03:05:42;6.40;;;2.80;;
52618;SDS011;38513;53.234;6.568;2023-07-31T03:08:08;7.68;;;2.90;;
52618;SDS011;38513;53.234;6.568;2023-07-31T03:10:34;8.77;;;3.40;;
52618;SDS011;38513;53.234;6.568;2023-07-31T03:13:00;5.88;;;2.80;;
52618;SDS011;38513;53.234;6.568;2023-07-31T03:15:26;8.13;;;2.85;;
52618;SDS011;38513;53.234;6.568;2023-07-31T03:17:52;7.78;;;2.80;;
52618;SDS011;38513;53.234;6.568;2023-07-31T03:20:18;5.57;;;2.60;;
52618;SDS011;38513;53.234;6.568;2023-07-31T03:22:44;6.07;;;2.70;;
52618;SDS011;38513;53.234;6.568;2023-07-31T03:25:13;6.07;;;2.63;;
52618;SDS011;38513;53.234;6.568;2023-07-31T03:27:39;6.78;;;2.85;;
52618;SDS011;38513;53.234;6.568;2023-07-31T03:30:06;5.40;;;2.57;;
52618;SDS011;38513;53.234;6.568;2023-07-31T03:32:32;6.60;;;2.53;;
52618;SDS011;38513;53.234;6.568;2023-07-31T03:34:58;6.32;;;2.60;;
52618;SDS011;38513;53.234;6.568;2023-07-31T03:37:24;6.30;;;2.22;;
52618;SDS011;38513;53.234;6.568;2023-07-31T03:39:54;6.70;;;1.90;;
52618;SDS011;38513;53.234;6.568;2023-07-31T03:42:20;5.22;;;2.17;;
52618;SDS011;38513;53.234;6.568;2023-07-31T03:44:46;5.85;;;2.35;;
52618;SDS011;38513;53.234;6.568;2023-07-31T03:47:13;6.18;;;2.20;;
52618;SDS011;38513;53.234;6.568;2023-07-31T03:49:39;9.02;;;2.10;;
52618;SDS011;38513;53.234;6.568;2023-07-31T03:52:07;6.03;;;2.22;;
52618;SDS011;38513;53.234;6.568;2023-07-31T03:54:33;6.57;;;2.10;;
52618;SDS011;38513;53.234;6.568;2023-07-31T03:57:00;6.00;;;2.00;;
52618;SDS011;38513;53.234;6.568;2023-07-31T03:59:26;6.07;;;1.90;;
52618;SDS011;38513;53.234;6.568;2023-07-31T04:01:52;7.32;;;2.05;;
52618;SDS011;38513;53.234;6.568;2023-07-31T04:04:21;6.60;;;2.00;;
52618;SDS011;38513;53.234;6.568;2023-07-31T04:06:47;5.40;;;1.90;;
52618;SDS011;38513;53.234;6.568;2023-07-31T04:09:14;6.90;;;1.90;;
52618;SDS011;38513;53.234;6.568;2023-07-31T04:11:40;6.60;;;2.10;;
52618;SDS011;38513;53.234;6.568;2023-07-31T04:14:08;7.75;;;2.28;;
52618;SDS011;38513;53.234;6.568;2023-07-31T04:16:34;5.90;;;2.10;;
52618;SDS011;38513;53.234;6.568;2023-07-31T04:19:00;6.75;;;2.13;;
52618;SDS011;38513;53.234;6.568;2023-07-31T04:21:27;7.25;;;1.90;;
52618;SDS011;38513;53.234;6.568;2023-07-31T04:23:54;5.87;;;1.90;;
52618;SDS011;38513;53.234;6.568;2023-07-31T04:26:23;6.63;;;2.00;;
52618;SDS011;38513;53.234;6.568;2023-07-31T04:28:49;6.00;;;1.65;;
52618;SDS011;38513;53.234;6.568;2023-07-31T04:31:15;7.13;;;1.80;;
52618;SDS011;38513;53.234;6.568;2023-07-31T04:33:42;5.82;;;2.10;;
52618;SDS011;38513;53.234;6.568;2023-07-31T04:36:08;6.55;;;1.90;;
52618;SDS011;38513;53.234;6.568;2023-07-31T04:38:34;5.65;;;1.83;;
52618;SDS011;38513;53.234;6.568;2023-07-31T04:41:00;5.33;;;1.70;;
52618;SDS011;38513;53.234;6.568;2023-07-31T04:43:26;4.65;;;1.52;;
52618;SDS011;38513;53.234;6.568;2023-07-31T04:45:52;3.95;;;1.60;;
52618;SDS011;38513;53.234;6.568;2023-07-31T04:48:19;3.60;;;1.25;;
52618;SDS011;38513;53.234;6.568;2023-07-31T04:50:45;5.65;;;1.48;;
52618;SDS011;38513;53.234;6.568;2023-07-31T04:53:11;5.60;;;1.42;;
52618;SDS011;38513;53.234;6.568;2023-07-31T04:55:37;5.55;;;1.30;;
52618;SDS011;38513;53.234;6.568;2023-07-31T04:58:07;5.18;;;1.27;;
52618;SDS011;38513;53.234;6.568;2023-07-31T05:00:34;4.07;;;1.40;;
52618;SDS011;38513;53.234;6.568;2023-07-31T05:03:00;4.15;;;1.00;;
52618;SDS011;38513;53.234;6.568;2023-07-31T05:05:26;3.80;;;1.20;;
52618;SDS011;38513;53.234;6.568;2023-07-31T05:07:52;3.67;;;1.20;;
52618;SDS011;38513;53.234;6.568;2023-07-31T05:10:18;4.53;;;1.20;;
52618;SDS011;38513;53.234;6.568;2023-07-31T05:12:44;3.53;;;1.10;;
52618;SDS011;38513;53.234;6.568;2023-07-31T05:15:11;4.18;;;1.35;;
52618;SDS011;38513;53.234;6.568;2023-07-31T05:17:37;4.30;;;1.40;;
52618;SDS011;38513;53.234;6.568;2023-07-31T05:20:03;5.53;;;1.42;;
52618;SDS011;38513;53.234;6.568;2023-07-31T05:22:29;4.22;;;1.35;;
52618;SDS011;38513;53.234;6.568;2023-07-31T05:24:55;4.40;;;1.50;;
52618;SDS011;38513;53.234;6.568;2023-07-31T05:27:21;6.07;;;1.40;;
52618;SDS011;38513;53.234;6.568;2023-07-31T05:29:50;2.95;;;1.00;;
52618;SDS011;38513;53.234;6.568;2023-07-31T05:32:16;3.20;;;1.02;;
52618;SDS011;38513;53.234;6.568;2023-07-31T05:34:42;3.63;;;1.00;;
52618;SDS011;38513;53.234;6.568;2023-07-31T05:37:09;3.00;;;0.75;;
52618;SDS011;38513;53.234;6.568;2023-07-31T05:39:36;2.40;;;0.70;;
52618;SDS011;38513;53.234;6.568;2023-07-31T05:42:03;2.87;;;0.83;;
52618;SDS011;38513;53.234;6.568;2023-07-31T05:44:29;2.95;;;0.82;;
52618;SDS011;38513;53.234;6.568;2023-07-31T05:46:55;3.58;;;1.00;;
52618;SDS011;38513;53.234;6.568;2023-07-31T05:49:21;2.33;;;0.80;;
52618;SDS011;38513;53.234;6.568;2023-07-31T05:51:47;4.18;;;1.00;;
52618;SDS011;38513;53.234;6.568;2023-07-31T05:54:13;4.88;;;1.23;;
52618;SDS011;38513;53.234;6.568;2023-07-31T05:56:39;4.70;;;1.20;;
52618;SDS011;38513;53.234;6.568;2023-07-31T05:59:06;4.05;;;1.20;;
52618;SDS011;38513;53.234;6.568;2023-07-31T06:01:32;3.47;;;1.20;;
52618;SDS011;38513;53.234;6.568;2023-07-31T06:03:58;4.97;;;1.10;;
52618;SDS011;38513;53.234;6.568;2023-07-31T06:06:24;5.63;;;1.50;;
52618;SDS011;38513;53.234;6.568;2023-07-31T06:08:58;4.22;;;1.40;;
52618;SDS011;38513;53.234;6.568;2023-07-31T06:11:24;4.88;;;1.58;;
52618;SDS011;38513;53.234;6.568;2023-07-31T06:13:53;5.00;;;1.60;;
52618;SDS011;38513;53.234;6.568;2023-07-31T06:16:19;4.63;;;1.70;;
52618;SDS011;38513;53.234;6.568;2023-07-31T06:18:46;5.82;;;1.90;;
52618;SDS011;38513;53.234;6.568;2023-07-31T06:21:15;6.18;;;1.90;;
52618;SDS011;38513;53.234;6.568;2023-07-31T06:23:41;5.20;;;2.00;;
52618;SDS011;38513;53.234;6.568;2023-07-31T06:26:11;6.78;;;2.30;;
52618;SDS011;38513;53.234;6.568;2023-07-31T06:28:37;7.00;;;2.63;;
52618;SDS011;38513;53.234;6.568;2023-07-31T06:31:03;8.07;;;2.97;;
52618;SDS011;38513;53.234;6.568;2023-07-31T06:33:29;9.00;;;3.47;;
52618;SDS011;38513;53.234;6.568;2023-07-31T06:35:55;8.88;;;3.50;;
52618;SDS011;38513;53.234;6.568;2023-07-31T06:38:22;13.23;;;4.40;;
52618;SDS011;38513;53.234;6.568;2023-07-31T06:40:48;14.27;;;4.95;;
52618;SDS011;38513;53.234;6.568;2023-07-31T06:43:14;14.57;;;5.10;;
52618;SDS011;38513;53.234;6.568;2023-07-31T06:45:41;17.42;;;5.32;;
52618;SDS011;38513;53.234;6.568;2023-07-31T06:48:07;19.98;;;6.25;;
52618;SDS011;38513;53.234;6.568;2023-07-31T06:50:36;22.73;;;7.10;;
52618;SDS011;38513;53.234;6.568;2023-07-31T06:53:02;23.35;;;7.70;;
52618;SDS011;38513;53.234;6.568;2023-07-31T06:55:28;22.40;;;7.57;;
52618;SDS011;38513;53.234;6.568;2023-07-31T06:58:00;23.90;;;7.38;;
52618;SDS011;38513;53.234;6.568;2023-07-31T07:00:26;25.17;;;7.65;;
52618;SDS011;38513;53.234;6.568;2023-07-31T07:02:56;27.63;;;8.45;;
52618;SDS011;38513;53.234;6.568;2023-07-31T07:05:23;24.00;;;7.78;;
52618;SDS011;38513;53.234;6.568;2023-07-31T07:07:49;26.52;;;7.88;;
52618;SDS011;38513;53.234;6.568;2023-07-31T07:10:18;26.95;;;7.85;;
52618;SDS011;38513;53.234;6.568;2023-07-31T07:12:45;28.20;;;7.82;;
52618;SDS011;38513;53.234;6.568;2023-07-31T07:15:11;25.25;;;8.02;;
52618;SDS011;38513;53.234;6.568;2023-07-31T07:17:37;25.65;;;7.65;;
52618;SDS011;38513;53.234;6.568;2023-07-31T07:20:04;24.87;;;7.77;;
52618;SDS011;38513;53.234;6.568;2023-07-31T07:22:30;24.07;;;7.90;;
52618;SDS011;38513;53.234;6.568;2023-07-31T07:24:56;29.15;;;7.97;;
52618;SDS011;38513;53.234;6.568;2023-07-31T07:27:25;22.63;;;7.43;;
52618;SDS011;38513;53.234;6.568;2023-07-31T07:29:51;24.90;;;7.68;;
52618;SDS011;38513;53.234;6.568;2023-07-31T07:32:20;26.42;;;7.55;;
52618;SDS011;38513;53.234;6.568;2023-07-31T07:34:47;24.17;;;7.28;;
52618;SDS011;38513;53.234;6.568;2023-07-31T07:37:13;20.35;;;6.35;;
52618;SDS011;38513;53.234;6.568;2023-07-31T07:39:40;22.00;;;6.68;;
52618;SDS011;38513;53.234;6.568;2023-07-31T07:42:06;18.92;;;6.78;;
52618;SDS011;38513;53.234;6.568;2023-07-31T07:44:33;22.35;;;7.30;;
52618;SDS011;38513;53.234;6.568;2023-07-31T07:46:59;22.80;;;7.10;;
52618;SDS011;38513;53.234;6.568;2023-07-31T07:49:25;21.10;;;7.65;;
52618;SDS011;38513;53.234;6.568;2023-07-31T07:51:51;21.48;;;7.88;;
52618;SDS011;38513;53.234;6.568;2023-07-31T07:54:17;20.35;;;7.70;;
52618;SDS011;38513;53.234;6.568;2023-07-31T07:56:46;18.80;;;7.55;;
52618;SDS011;38513;53.234;6.568;2023-07-31T07:59:12;15.32;;;6.57;;
52618;SDS011;38513;53.234;6.568;2023-07-31T08:01:38;13.77;;;4.95;;
52618;SDS011;38513;53.234;6.568;2023-07-31T08:04:04;9.65;;;3.25;;
52618;SDS011;38513;53.234;6.568;2023-07-31T08:06:30;7.18;;;2.40;;
52618;SDS011;38513;53.234;6.568;2023-07-31T08:08:56;6.85;;;2.15;;
52618;SDS011;38513;53.234;6.568;2023-07-31T08:11:23;6.57;;;2.13;;
52618;SDS011;38513;53.234;6.568;2023-07-31T08:13:49;5.57;;;1.70;;
52618;SDS011;38513;53.234;6.568;2023-07-31T08:16:15;5.22;;;1.70;;
52618;SDS011;38513;53.234;6.568;2023-07-31T08:18:42;5.18;;;1.65;;
52618;SDS011;38513;53.234;6.568;2023-07-31T08:21:08;5.70;;;1.88;;
52618;SDS011;38513;53.234;6.568;2023-07-31T08:23:34;5.03;;;1.83;;
52618;SDS011;38513;53.234;6.568;2023-07-31T08:26:00;5.80;;;1.85;;
52618;SDS011;38513;53.234;6.568;2023-07-31T08:28:27;5.13;;;1.70;;
52618;SDS011;38513;53.234;6.568;2023-07-31T08:30:56;4.97;;;1.67;;
52618;SDS011;38513;53.234;6.568;2023-07-31T08:33:22;4.65;;;1.60;;
52618;SDS011;38513;53.234;6.568;2023-07-31T08:35:49;4.73;;;1.40;;
52618;SDS011;38513;53.234;6.568;2023-07-31T08:38:15;5.40;;;1.48;;
52618;SDS011;38513;53.234;6.568;2023-07-31T08:40:44;3.90;;;1.40;;
52618;SDS011;38513;53.234;6.568;2023-07-31T08:43:13;5.45;;;1.60;;
52618;SDS011;38513;53.234;6.568;2023-07-31T08:45:42;4.40;;;1.60;;
52618;SDS011;38513;53.234;6.568;2023-07-31T08:48:09;4.53;;;1.40;;
52618;SDS011;38513;53.234;6.568;2023-07-31T08:50:35;4.57;;;1.27;;
52618;SDS011;38513;53.234;6.568;2023-07-31T08:53:02;4.22;;;1.30;;
52618;SDS011;38513;53.234;6.568;2023-07-31T08:55:28;3.63;;;1.40;;
52618;SDS011;38513;53.234;6.568;2023-07-31T08:57:54;4.80;;;1.13;;
52618;SDS011;38513;53.234;6.568;2023-07-31T09:00:21;4.03;;;1.40;;
52618;SDS011;38513;53.234;6.568;2023-07-31T09:03:00;3.38;;;1.33;;
52618;SDS011;38513;53.234;6.568;2023-07-31T09:05:28;3.57;;;1.30;;
52618;SDS011;38513;53.234;6.568;2023-07-31T09:07:54;4.55;;;1.35;;
52618;SDS011;38513;53.234;6.568;2023-07-31T09:10:21;4.40;;;1.25;;
52618;SDS011;38513;53.234;6.568;2023-07-31T09:12:48;3.30;;;1.25;;
52618;SDS011;38513;53.234;6.568;2023-07-31T09:15:14;3.63;;;1.20;;
52618;SDS011;38513;53.234;6.568;2023-07-31T09:17:40;3.00;;;1.10;;
52618;SDS011;38513;53.234;6.568;2023-07-31T09:20:13;3.67;;;1.20;;
52618;SDS011;38513;53.234;6.568;2023-07-31T09:22:40;5.00;;;1.20;;
52618;SDS011;38513;53.234;6.568;2023-07-31T09:25:19;2.35;;;0.82;;
52618;SDS011;38513;53.234;6.568;2023-07-31T09:27:52;2.78;;;1.00;;
52618;SDS011;38513;53.234;6.568;2023-07-31T09:30:19;3.03;;;1.10;;
52618;SDS011;38513;53.234;6.568;2023-07-31T09:32:46;3.40;;;1.10;;
52618;SDS011;38513;53.234;6.568;2023-07-31T09:35:27;3.05;;;0.90;;
52618;SDS011;38513;53.234;6.568;2023-07-31T09:37:57;3.90;;;1.20;;
52618;SDS011;38513;53.234;6.568;2023-07-31T09:40:31;2.88;;;1.02;;
52618;SDS011;38513;53.234;6.568;2023-07-31T09:42:57;3.15;;;1.10;;
52618;SDS011;38513;53.234;6.568;2023-07-31T09:45:24;3.37;;;1.13;;
52618;SDS011;38513;53.234;6.568;2023-07-31T09:47:51;3.55;;;1.20;;
52618;SDS011;38513;53.234;6.568;2023-07-31T09:50:17;3.13;;;1.20;;
52618;SDS011;38513;53.234;6.568;2023-07-31T09:52:43;2.38;;;0.93;;
52618;SDS011;38513;53.234;6.568;2023-07-31T09:55:10;2.58;;;0.80;;
52618;SDS011;38513;53.234;6.568;2023-07-31T09:57:41;2.35;;;0.90;;
52618;SDS011;38513;53.234;6.568;2023-07-31T10:00:14;1.80;;;0.70;;
52618;SDS011;38513;53.234;6.568;2023-07-31T10:02:40;2.15;;;0.70;;
52618;SDS011;38513;53.234;6.568;2023-07-31T10:05:10;2.17;;;0.75;;
52618;SDS011;38513;53.234;6.568;2023-07-31T10:07:38;4.10;;;0.90;;
52618;SDS011;38513;53.234;6.568;2023-07-31T10:10:06;2.10;;;0.40;;
52618;SDS011;38513;53.234;6.568;2023-07-31T10:12:33;1.70;;;0.50;;
52618;SDS011;38513;53.234;6.568;2023-07-31T10:15:00;1.35;;;0.40;;
52618;SDS011;38513;53.234;6.568;2023-07-31T10:17:26;1.10;;;0.40;;
52618;SDS011;38513;53.234;6.568;2023-07-31T10:19:52;1.15;;;0.40;;
52618;SDS011;38513;53.234;6.568;2023-07-31T10:22:19;1.52;;;0.40;;
52618;SDS011;38513;53.234;6.568;2023-07-31T10:24:45;1.52;;;0.40;;
52618;SDS011;38513;53.234;6.568;2023-07-31T10:27:12;0.90;;;0.40;;
52618;SDS011;38513;53.234;6.568;2023-07-31T10:29:38;5.72;;;2.75;;
52618;SDS011;38513;53.234;6.568;2023-07-31T10:32:06;0.80;;;0.30;;
52618;SDS011;38513;53.234;6.568;2023-07-31T10:34:35;1.80;;;0.60;;
52618;SDS011;38513;53.234;6.568;2023-07-31T10:40:05;0.82;;;0.40;;
52618;SDS011;38513;53.234;6.568;2023-07-31T10:44:59;1.50;;;0.50;;
52618;SDS011;38513;53.234;6.568;2023-07-31T10:47:25;2.13;;;0.43;;
52618;SDS011;38513;53.234;6.568;2023-07-31T10:49:51;1.60;;;0.40;;
52618;SDS011;38513;53.234;6.568;2023-07-31T10:52:21;2.03;;;0.47;;
52618;SDS011;38513;53.234;6.568;2023-07-31T10:54:48;3.13;;;0.80;;
52618;SDS011;38513;53.234;6.568;2023-07-31T10:57:21;2.70;;;0.75;;
52618;SDS011;38513;53.234;6.568;2023-07-31T10:59:51;1.77;;;0.60;;
52618;SDS011;38513;53.234;6.568;2023-07-31T11:02:26;2.85;;;0.80;;
52618;SDS011;38513;53.234;6.568;2023-07-31T11:05:10;1.70;;;0.70;;
52618;SDS011;38513;53.234;6.568;2023-07-31T11:07:46;2.40;;;0.90;;
52618;SDS011;38513;53.234;6.568;2023-07-31T11:10:15;3.07;;;1.00;;
52618;SDS011;38513;53.234;6.568;2023-07-31T11:12:41;4.03;;;1.17;;
52618;SDS011;38513;53.234;6.568;2023-07-31T11:15:08;3.13;;;1.20;;
52618;SDS011;38513;53.234;6.568;2023-07-31T11:17:42;3.25;;;1.20;;
52618;SDS011;38513;53.234;6.568;2023-07-31T11:20:08;3.17;;;1.10;;
52618;SDS011;38513;53.234;6.568;2023-07-31T11:22:35;4.72;;;1.40;;
52618;SDS011;38513;53.234;6.568;2023-07-31T11:25:02;2.92;;;0.90;;
52618;SDS011;38513;53.234;6.568;2023-07-31T11:27:29;2.80;;;0.80;;
52618;SDS011;38513;53.234;6.568;2023-07-31T11:30:02;2.33;;;0.80;;
52618;SDS011;38513;53.234;6.568;2023-07-31T11:32:28;3.28;;;0.90;;
52618;SDS011;38513;53.234;6.568;2023-07-31T11:34:54;3.35;;;1.00;;
52618;SDS011;38513;53.234;6.568;2023-07-31T11:37:20;3.92;;;1.10;;
52618;SDS011;38513;53.234;6.568;2023-07-31T11:40:00;3.50;;;1.20;;
52618;SDS011;38513;53.234;6.568;2023-07-31T11:42:29;3.30;;;1.10;;
52618;SDS011;38513;53.234;6.568;2023-07-31T11:44:55;4.75;;;1.30;;
52618;SDS011;38513;53.234;6.568;2023-07-31T11:47:25;4.00;;;1.20;;
52618;SDS011;38513;53.234;6.568;2023-07-31T11:49:51;4.53;;;1.10;;
52618;SDS011;38513;53.234;6.568;2023-07-31T11:52:17;4.80;;;1.20;;
52618;SDS011;38513;53.234;6.568;2023-07-31T11:54:48;3.20;;;1.30;;
52618;SDS011;38513;53.234;6.568;2023-07-31T11:57:14;5.00;;;1.40;;
52618;SDS011;38513;53.234;6.568;2023-07-31T11:59:41;3.88;;;1.40;;
52618;SDS011;38513;53.234;6.568;2023-07-31T12:02:15;4.43;;;1.40;;
52618;SDS011;38513;53.234;6.568;2023-07-31T12:04:42;5.55;;;1.70;;
52618;SDS011;38513;53.234;6.568;2023-07-31T12:07:09;4.78;;;1.45;;
52618;SDS011;38513;53.234;6.568;2023-07-31T12:09:35;5.33;;;1.77;;
52618;SDS011;38513;53.234;6.568;2023-07-31T12:12:01;6.00;;;1.70;;
52618;SDS011;38513;53.234;6.568;2023-07-31T12:14:29;4.18;;;1.60;;
52618;SDS011;38513;53.234;6.568;2023-07-31T12:16:59;5.18;;;1.67;;
52618;SDS011;38513;53.234;6.568;2023-07-31T12:19:25;5.40;;;1.60;;
52618;SDS011;38513;53.234;6.568;2023-07-31T12:21:58;4.40;;;1.60;;
52618;SDS011;38513;53.234;6.568;2023-07-31T12:24:28;5.07;;;1.50;;
52618;SDS011;38513;53.234;6.568;2023-07-31T12:26:54;4.75;;;1.60;;
52618;SDS011;38513;53.234;6.568;2023-07-31T12:29:20;4.45;;;2.00;;
52618;SDS011;38513;53.234;6.568;2023-07-31T12:31:46;4.80;;;1.75;;
52618;SDS011;38513;53.234;6.568;2023-07-31T12:34:16;5.00;;;1.70;;
52618;SDS011;38513;53.234;6.568;2023-07-31T12:36:43;4.55;;;1.70;;
52618;SDS011;38513;53.234;6.568;2023-07-31T12:39:09;5.65;;;2.10;;
52618;SDS011;38513;53.234;6.568;2023-07-31T12:41:35;4.90;;;1.67;;
52618;SDS011;38513;53.234;6.568;2023-07-31T12:44:02;4.35;;;1.70;;
52618;SDS011;38513;53.234;6.568;2023-07-31T12:46:28;4.60;;;1.58;;
52618;SDS011;38513;53.234;6.568;2023-07-31T12:48:54;4.38;;;1.50;;
52618;SDS011;38513;53.234;6.568;2023-07-31T12:51:21;6.13;;;1.88;;
52618;SDS011;38513;53.234;6.568;2023-07-31T12:53:47;6.20;;;1.83;;
52618;SDS011;38513;53.234;6.568;2023-07-31T12:56:16;4.60;;;1.80;;
52618;SDS011;38513;53.234;6.568;2023-07-31T12:58:42;4.82;;;1.50;;
52618;SDS011;38513;53.234;6.568;2023-07-31T13:01:09;5.40;;;1.70;;
52618;SDS011;38513;53.234;6.568;2023-07-31T13:03:35;5.13;;;1.73;;
52618;SDS011;38513;53.234;6.568;2023-07-31T13:06:01;6.15;;;2.05;;
52618;SDS011;38513;53.234;6.568;2023-07-31T13:08:27;6.40;;;2.30;;
52618;SDS011;38513;53.234;6.568;2023-07-31T13:10:56;6.85;;;2.10;;
52618;SDS011;38513;53.234;6.568;2023-07-31T13:13:23;6.63;;;1.88;;
52618;SDS011;38513;53.234;6.568;2023-07-31T13:15:49;7.28;;;2.05;;
52618;SDS011;38513;53.234;6.568;2023-07-31T13:18:17;8.48;;;2.20;;
52618;SDS011;38513;53.234;6.568;2023-07-31T13:20:47;7.40;;;2.20;;
52618;SDS011;38513;53.234;6.568;2023-07-31T13:23:13;7.72;;;2.70;;
52618;SDS011;38513;53.234;6.568;2023-07-31T13:25:41;8.77;;;2.55;;
52618;SDS011;38513;53.234;6.568;2023-07-31T13:28:08;7.53;;;2.42;;
52618;SDS011;38513;53.234;6.568;2023-07-31T13:30:34;9.60;;;2.47;;
52618;SDS011;38513;53.234;6.568;2023-07-31T13:33:00;8.45;;;2.55;;
52618;SDS011;38513;53.234;6.568;2023-07-31T13:35:29;8.40;;;2.50;;
52618;SDS011;38513;53.234;6.568;2023-07-31T13:37:56;10.18;;;2.80;;
52618;SDS011;38513;53.234;6.568;2023-07-31T13:40:22;9.23;;;2.75;;
52618;SDS011;38513;53.234;6.568;2023-07-31T13:42:48;9.70;;;2.90;;
52618;SDS011;38513;53.234;6.568;2023-07-31T13:45:15;8.68;;;2.67;;
52618;SDS011;38513;53.234;6.568;2023-07-31T13:47:41;10.00;;;2.65;;
52618;SDS011;38513;53.234;6.568;2023-07-31T13:50:07;9.20;;;2.20;;
52618;SDS011;38513;53.234;6.568;2023-07-31T13:52:34;8.40;;;2.38;;
52618;SDS011;38513;53.234;6.568;2023-07-31T13:55:00;9.02;;;2.50;;
52618;SDS011;38513;53.234;6.568;2023-07-31T13:57:26;8.15;;;2.50;;
52618;SDS011;38513;53.234;6.568;2023-07-31T13:59:53;13.13;;;3.10;;
52618;SDS011;38513;53.234;6.568;2023-07-31T14:02:19;8.95;;;2.63;;
52618;SDS011;38513;53.234;6.568;2023-07-31T14:04:48;8.85;;;2.95;;
52618;SDS011;38513;53.234;6.568;2023-07-31T14:07:14;8.95;;;2.67;;
52618;SDS011;38513;53.234;6.568;2023-07-31T14:09:42;10.98;;;2.97;;
52618;SDS011;38513;53.234;6.568;2023-07-31T14:12:08;8.27;;;3.00;;
52618;SDS011;38513;53.234;6.568;2023-07-31T14:14:35;12.00;;;2.95;;
52618;SDS011;38513;53.234;6.568;2023-07-31T14:17:01;12.00;;;3.50;;
52618;SDS011;38513;53.234;6.568;2023-07-31T14:19:27;9.52;;;3.35;;
52618;SDS011;38513;53.234;6.568;2023-07-31T14:21:53;8.68;;;3.20;;
52618;SDS011;38513;53.234;6.568;2023-07-31T14:24:20;11.75;;;3.70;;
52618;SDS011;38513;53.234;6.568;2023-07-31T14:26:46;9.90;;;3.40;;
52618;SDS011;38513;53.234;6.568;2023-07-31T14:29:12;10.68;;;3.90;;
52618;SDS011;38513;53.234;6.568;2023-07-31T14:31:38;10.38;;;3.80;;
52618;SDS011;38513;53.234;6.568;2023-07-31T14:34:04;10.85;;;3.65;;
52618;SDS011;38513;53.234;6.568;2023-07-31T14:36:33;9.20;;;3.95;;
52618;SDS011;38513;53.234;6.568;2023-07-31T14:38:59;9.15;;;3.35;;
52618;SDS011;38513;53.234;6.568;2023-07-31T14:41:25;9.60;;;3.30;;
52618;SDS011;38513;53.234;6.568;2023-07-31T14:43:51;9.77;;;3.83;;
52618;SDS011;38513;53.234;6.568;2023-07-31T14:46:17;10.05;;;3.72;;
52618;SDS011;38513;53.234;6.568;2023-07-31T14:48:44;12.73;;;4.55;;
52618;SDS011;38513;53.234;6.568;2023-07-31T14:51:10;12.48;;;3.80;;
52618;SDS011;38513;53.234;6.568;2023-07-31T14:53:36;12.13;;;3.90;;
52618;SDS011;38513;53.234;6.568;2023-07-31T14:56:02;11.48;;;3.60;;